الصفحة الرئيسية
METAR-TAF:

METAR-TAF

مطار :

بورمفيلد, كولورادو, الولايات المتحدة

دائرة عرض: 39-55N, خط طول: 105-07W, ارتفاع: 1724 متر

مراقبة الطقس الحالي

تاريخ ووقت الإصدار 27 دقيقة قبل الساعة 13:51UTC
ريح 4 عقدة من الشمال
درجة الحرارة -1°درجة مئوية
الرطوبة 31%
ضغط 1025 hPa
الرؤية: 80.5 كم
سماء صافية

METAR: KBJC 141351Z 35004KT 50SM SKC M01/M16 A3027

زمن: 07:18 (14:18 UTC)

توقعات

تاريخ ووقت الإصدار 2ساعات و 58 دقيقة قبل الساعة 11:20UTC
التوقعات صالحة من14 الساعة 12 UTC إلى 15 الساعة 12 UTC
ريح 4 عقدةمن اتجاهات متغيرة
الرؤية: 10 كم
غيوم قليلة على ارتفاع 20000 قدم
من 15 الساعة 0900 UTC
ريح 9 عقدة من الغرب/الجنوب الغربي
الرؤية: 10 كم
غيوم قليلة على ارتفاع 20000 قدم

TAF: KBJC 141120Z 1412/1512 VRB04KT P6SM FEW200 FM150900 25009KT P6SM FEW200

أرصاد الطقس والتوقعات من أكثر من 4000 مطار (تقارير الطقس للمطار METAR والتنبؤ بالطقس بالمطارTAF).

المحطات المتاحة هي النقط الصفراء والحمراء على الخريطة.

حرك المؤشر فوق النقطة لمعرفة اسم المحطة.

ثم انقر لمعرفة أرصاد وتوقعات الطقس.

لتغيير الخارطة: اضغط على الأزرار الخضراء مع رمز الصليب الأسود للتكبير. على الزر الأخضر مع شرطة للتصغير، أو على الأسهم الخضراء للخرائط المجاورة.


METAR-TAF: